Главная страница
METAR-TAF:

METAR-TAF

Аэропорты :

Нукус, Узбекистан

широта: 42-28-48N, долгота: 059-37-48E, высота над уровнем моря: 77 м

Текущие метеонаблюдения

Эта сводка был подготовлена 47 минут назад, в 04:00 UTC
Ветер 4 Узел от северо-восточный
Температура -17°C
Влажность 84%
Давление 1029 hPa
Видимость 10 км и более
Нет облачности ниже 1500 м, и нет кучево-дождевой облачности

METAR: UTNN 170400Z 04004KT CAVOK M17/M19 Q1029 R33/CLRD60 NOSIG

Время: 09:47 (04:47 UTC)

Прогноз

Эта сводка был подготовлена 5 часа и 47 минут назад, в 23:00 UTC
Прогноз действительный с 17-го 00 UTC до 17-го 24 UTC
Ветер 10 Узел от северо-северо-восточный с порывами до 20 Узел
Видимость 10 км и более
Нет облачности ниже 1500 м, и нет кучево-дождевой облачности
временами
С 17-го 00 UTC до 17-го 05 UTC
Ветер 4 Узел переменных направлений

TAF: UTNN 162300Z 1700/1724 02010G20KT CAVOK TEMPO 1700/1705 VRB04KT

Метеонаблюдения и прогнозы для более 4000 аэропортов (сводки METAR и TAF).

Имеющиеся станции представлены на карте желтыми и красными точками.

Чтобы увидеть название станции, наведите на нее мышь.

Затем щелкните, чтобы увидеть метеонаблюдения и метеопрогнозы.

Управление картой: чтобы увеличить масштаб, щелкните зеленые кнопки с черным крестиком; чтобы уменьшить масштаб, щелкните зеленую кнопку с тире; для просмотра соседних карт щелкайте зеленые стрелки.


METAR-TAF: